createdAt,value
2023-04-11T00:01:34.511Z,243.17
2023-04-11T00:06:37.230Z,282.97
2023-04-11T00:11:40.057Z,313.83
2023-04-11T00:16:43.001Z,308.13
2023-04-11T00:21:45.644Z,301.67
2023-04-11T00:26:48.302Z,318.70
2023-04-11T00:31:52.915Z,300.27
2023-04-11T00:36:56.237Z,236.10
2023-04-11T00:42:09.085Z,230.60
2023-04-11T00:47:12.690Z,306.90
2023-04-11T00:52:15.354Z,310.80
2023-04-11T00:57:18.249Z,302.13
2023-04-11T01:02:20.874Z,301.67
2023-04-11T01:07:26.120Z,238.10
2023-04-11T01:12:30.238Z,233.70
2023-04-11T01:17:34.181Z,236.37
2023-04-11T01:22:38.901Z,272.10
2023-04-11T01:27:43.220Z,317.00
2023-04-11T01:32:46.258Z,305.20
2023-04-11T01:37:49.101Z,310.37
2023-04-11T01:42:53.144Z,281.20
2023-04-11T01:47:57.297Z,232.17
2023-04-11T01:53:00.127Z,230.90
2023-04-11T01:58:03.178Z,231.07
2023-04-11T02:03:06.119Z,259.17
2023-04-11T02:08:08.973Z,282.53
2023-04-11T02:13:11.924Z,293.13
2023-04-11T02:18:14.499Z,290.73
2023-04-11T02:23:17.223Z,295.27
2023-04-11T02:28:22.803Z,276.97
2023-04-11T02:33:28.456Z,225.23
2023-04-11T02:38:31.334Z,227.73
2023-04-11T02:43:34.824Z,235.83
2023-04-11T02:48:37.564Z,264.10
2023-04-11T02:53:41.328Z,282.30
2023-04-11T02:58:49.043Z,277.67
2023-04-11T03:03:54.419Z,231.23
2023-04-11T03:09:00.835Z,215.33
2023-04-11T03:14:04.093Z,214.67
2023-04-11T03:19:07.086Z,241.77
2023-04-11T03:24:09.817Z,266.57
2023-04-11T03:29:12.470Z,266.30
2023-04-11T03:34:27.985Z,213.37
2023-04-11T03:39:33.185Z,207.37
2023-04-11T03:44:36.054Z,227.87
2023-04-11T03:49:38.712Z,257.40
2023-04-11T03:54:41.609Z,264.70
2023-04-11T03:59:48.218Z,265.37
2023-04-11T04:04:58.884Z,261.03
2023-04-11T04:10:08.614Z,246.10
2023-04-11T04:15:15.045Z,263.37
2023-04-11T04:20:21.049Z,273.87
2023-04-11T04:25:29.091Z,207.80
2023-04-11T04:30:34.246Z,203.97
2023-04-11T04:35:42.508Z,261.03
2023-04-11T04:40:45.252Z,259.30
2023-04-11T04:45:48.230Z,261.30
2023-04-11T04:50:56.402Z,208.63
2023-04-11T04:55:59.293Z,210.23
2023-04-11T05:01:05.413Z,219.27
2023-04-11T05:06:10.064Z,261.60
2023-04-11T05:11:13.854Z,262.53
2023-04-11T05:16:18.001Z,264.40
2023-04-11T05:21:21.286Z,262.87
2023-04-11T05:26:27.822Z,210.07
2023-04-11T05:31:31.076Z,209.03
2023-04-11T05:36:34.314Z,206.57
2023-04-11T05:41:37.321Z,228.33
2023-04-11T05:46:39.920Z,250.50
2023-04-11T05:51:42.617Z,258.17
2023-04-11T05:56:45.269Z,254.23
2023-04-11T06:01:48.191Z,259.33
2023-04-11T06:06:52.232Z,263.13
2023-04-11T06:11:55.041Z,210.50
2023-04-11T06:16:57.652Z,207.53
2023-04-11T06:22:00.403Z,199.57
2023-04-11T06:27:03.962Z,211.27
2023-04-11T06:32:07.942Z,224.50
2023-04-11T06:37:10.746Z,267.43
2023-04-11T06:42:13.402Z,257.00
2023-04-11T06:47:19.685Z,261.30
2023-04-11T06:52:22.647Z,248.80
2023-04-11T06:57:25.397Z,212.63
2023-04-11T07:02:28.218Z,206.87
2023-04-11T07:07:31.745Z,203.37
2023-04-11T07:12:34.822Z,207.13
2023-04-11T07:17:38.091Z,236.37
2023-04-11T07:22:45.476Z,253.43
2023-04-11T07:27:49.850Z,258.97
2023-04-11T07:32:52.542Z,249.03
2023-04-11T07:37:57.652Z,208.00
2023-04-11T07:43:02.278Z,208.43
2023-04-11T07:48:05.507Z,212.07
2023-04-11T07:53:08.237Z,245.07
2023-04-11T07:58:11.150Z,258.83
2023-04-11T08:03:14.029Z,268.57
2023-04-11T08:08:17.172Z,272.07
2023-04-11T08:13:19.905Z,281.70
2023-04-11T08:18:23.443Z,262.27
2023-04-11T08:23:26.283Z,218.97
2023-04-11T08:28:28.972Z,222.93
2023-04-11T08:33:32.441Z,223.50
2023-04-11T08:38:36.138Z,226.87
2023-04-11T08:43:44.114Z,268.73
2023-04-11T08:48:49.799Z,292.03
2023-04-11T08:53:58.625Z,270.77
2023-04-11T08:59:02.704Z,309.60
2023-04-11T09:04:06.773Z,243.27
2023-04-11T09:09:27.905Z,283.40
2023-04-11T09:14:31.677Z,243.23
2023-04-11T09:19:36.113Z,242.77
2023-04-11T09:24:39.042Z,290.63
2023-04-11T09:29:46.797Z,302.33
2023-04-11T09:34:49.937Z,311.43
2023-04-11T09:40:11.830Z,286.33
2023-04-11T09:45:21.311Z,316.03
2023-04-11T09:50:25.660Z,264.93
2023-04-11T09:55:28.373Z,230.57
2023-04-11T10:00:32.716Z,230.60
2023-04-11T10:05:35.739Z,239.13
2023-04-11T10:10:38.695Z,281.63
2023-04-11T10:16:11.525Z,306.17
2023-04-11T10:21:36.606Z,308.13
2023-04-11T10:26:51.847Z,302.37
2023-04-11T10:32:12.834Z,260.57
2023-04-11T10:37:15.705Z,302.20
2023-04-11T10:42:34.949Z,317.93
2023-04-11T10:47:37.613Z,261.67
2023-04-11T10:52:40.243Z,307.63
2023-04-11T10:58:11.788Z,328.67
2023-04-11T11:03:25.901Z,339.13
2023-04-11T11:08:38.249Z,250.83
2023-04-11T11:13:50.870Z,345.63
2023-04-11T11:19:02.769Z,288.77
2023-04-11T11:24:06.171Z,246.50
2023-04-11T11:29:10.270Z,279.70
2023-04-11T11:34:23.521Z,312.60
2023-04-11T11:39:28.469Z,239.00
2023-04-11T11:44:33.310Z,237.93
2023-04-11T11:49:56.321Z,284.33
2023-04-11T11:54:58.958Z,240.17
2023-04-11T12:00:06.319Z,283.90
2023-04-11T12:05:11.984Z,311.73
2023-04-11T12:10:17.274Z,361.13
2023-04-11T12:15:22.067Z,369.90
2023-04-11T12:20:26.755Z,327.87
2023-04-11T12:25:30.532Z,557.50
2023-04-11T12:30:33.734Z,303.87
2023-04-11T12:35:36.547Z,292.20
2023-04-11T12:40:39.296Z,366.13
2023-04-11T12:45:42.260Z,358.10
2023-04-11T12:50:44.943Z,364.50
2023-04-11T12:55:47.743Z,334.53
2023-04-11T13:00:50.740Z,328.67
2023-04-11T13:05:53.838Z,282.60
2023-04-11T13:10:56.960Z,264.30
2023-04-11T13:16:00.461Z,254.47
2023-04-11T13:21:03.585Z,239.97
2023-04-11T13:26:07.473Z,240.30
2023-04-11T13:31:14.363Z,274.20
2023-04-11T13:36:17.068Z,3.67
2023-04-11T13:41:19.642Z,2.90
2023-04-11T13:46:22.538Z,1.63
2023-04-11T13:51:25.142Z,1.90
2023-04-11T13:56:27.798Z,1.93
2023-04-11T14:01:30.673Z,1.83
2023-04-11T14:06:35.502Z,1.43
2023-04-11T14:11:38.504Z,3.40
2023-04-11T14:16:41.764Z,2.57
2023-04-11T14:21:44.554Z,3.03
2023-04-11T14:26:47.291Z,3.20
2023-04-11T14:31:50.448Z,3.20
2023-04-11T14:36:53.383Z,2.90
2023-04-11T14:41:56.576Z,3.03
2023-04-11T14:46:59.175Z,2.53
2023-04-11T14:52:02.384Z,1.30
2023-04-11T14:57:05.731Z,3.43
2023-04-11T15:02:08.985Z,1.70
2023-04-11T15:07:11.879Z,2.77
2023-04-11T15:12:14.378Z,3.33
2023-04-11T15:17:17.265Z,2.33
2023-04-11T15:22:19.885Z,3.37
2023-04-11T15:27:22.662Z,2.73
2023-04-11T15:32:25.757Z,2.00
2023-04-11T15:37:28.636Z,2.70
2023-04-11T15:42:34.439Z,3.97
2023-04-11T15:47:37.785Z,3.63
2023-04-11T15:52:40.884Z,2.03
2023-04-11T15:57:43.461Z,2.03
2023-04-11T16:02:47.389Z,2.17
2023-04-11T16:07:50.505Z,1.27
2023-04-11T16:12:53.310Z,1.63
2023-04-11T16:17:56.246Z,4.67
2023-04-11T16:22:59.065Z,2.83
2023-04-11T16:28:02.272Z,2.20
2023-04-11T16:33:05.441Z,2.20
2023-04-11T16:38:08.402Z,2.83
2023-04-11T16:43:11.330Z,4.63
2023-04-11T16:48:13.910Z,1.90
2023-04-11T16:53:18.698Z,4.07
2023-04-11T16:58:21.350Z,2.57
2023-04-11T17:03:24.356Z,3.00
2023-04-11T17:08:27.113Z,2.63
2023-04-11T17:13:29.738Z,3.57
2023-04-11T17:18:32.463Z,3.27
2023-04-11T17:23:43.169Z,4.40
2023-04-11T17:28:47.174Z,3.20
2023-04-11T17:33:49.816Z,2.97
2023-04-11T17:38:54.611Z,1.83
2023-04-11T17:43:57.595Z,2.87
2023-04-11T17:49:00.377Z,2.77
2023-04-11T17:54:03.262Z,4.33
2023-04-11T17:59:06.606Z,2.30
2023-04-11T18:04:09.899Z,5.10
2023-04-11T18:09:12.734Z,2.93
2023-04-11T18:14:15.294Z,2.13
2023-04-11T18:19:18.474Z,2.83
2023-04-11T18:24:21.324Z,4.07
2023-04-11T18:29:23.972Z,3.33
2023-04-11T18:34:26.823Z,4.03
2023-04-11T18:39:29.664Z,3.43
2023-04-11T18:44:32.660Z,3.50
2023-04-11T18:49:37.341Z,5.00
2023-04-11T18:54:40.267Z,4.87
2023-04-11T18:59:44.302Z,3.53
2023-04-11T19:04:47.536Z,2.33
2023-04-11T19:09:50.255Z,3.13
2023-04-11T19:14:53.247Z,5.00
2023-04-11T19:19:56.069Z,3.63
2023-04-11T19:24:58.955Z,3.37
2023-04-11T19:30:01.785Z,3.00
2023-04-11T19:35:06.018Z,3.37
2023-04-11T19:40:19.533Z,5.13
2023-04-11T19:45:22.395Z,3.20
2023-04-11T19:50:25.734Z,3.00
2023-04-11T19:55:29.267Z,1.93
2023-04-11T20:00:36.599Z,3.47
2023-04-11T20:05:39.325Z,3.83
2023-04-11T20:10:41.988Z,3.80
2023-04-11T20:15:44.847Z,3.13
2023-04-11T20:20:47.492Z,2.73
2023-04-11T20:25:50.188Z,3.83
2023-04-11T20:30:52.927Z,2.03
2023-04-11T20:35:57.015Z,3.40
2023-04-11T20:41:03.987Z,2.47
2023-04-11T20:46:08.869Z,69.90
2023-04-11T20:51:11.582Z,3.37
2023-04-11T20:56:15.164Z,4.97
2023-04-11T21:01:18.294Z,2.67
2023-04-11T21:06:21.391Z,3.20
2023-04-11T21:11:24.490Z,2.50
2023-04-11T21:16:27.398Z,4.37
2023-04-11T21:21:30.059Z,4.70
2023-04-11T21:26:32.684Z,2.73
2023-04-11T21:31:35.833Z,3.83
2023-04-11T21:36:39.016Z,4.57
2023-04-11T21:41:41.737Z,4.63
2023-04-11T21:46:45.066Z,4.70
2023-04-11T21:51:47.718Z,1.93
2023-04-11T21:56:50.395Z,2.60
2023-04-11T22:01:53.108Z,2.17
2023-04-11T22:06:58.683Z,2.73
2023-04-11T22:12:01.845Z,2.73
2023-04-11T22:17:04.671Z,3.67
2023-04-11T22:22:08.483Z,3.07
2023-04-11T22:27:11.085Z,3.17
2023-04-11T22:32:13.823Z,2.63
2023-04-11T22:37:16.686Z,2.50
2023-04-11T22:42:19.524Z,3.57
2023-04-11T22:47:22.118Z,2.77
2023-04-11T22:52:26.247Z,2.90
2023-04-11T22:57:28.920Z,4.57
2023-04-11T23:02:34.642Z,3.53
2023-04-11T23:07:37.580Z,1.87
2023-04-11T23:12:44.615Z,5.00
2023-04-11T23:17:47.307Z,2.97
2023-04-11T23:22:49.951Z,1.77
2023-04-11T23:27:52.838Z,4.27
2023-04-11T23:32:55.422Z,1.80
2023-04-11T23:38:00.111Z,3.43
2023-04-11T23:43:02.685Z,4.57
2023-04-11T23:48:05.822Z,2.50
2023-04-11T23:53:08.814Z,4.23
2023-04-11T23:58:11.614Z,2.43
